Terminal Aerodrome Forecast
Issued by NWS

Home | Current Version | Previous Version | Text Only | Print | Product List | Glossary On
Versions: 1 2 3 4 5 6 7 8 9 10 11 12 13 14 15
000
FTUS42 TJSJ 260531
TAFKPK
TAF
TKPK 260531Z 2606/2706 08011KT P6SM VCSH SCT018 SCT040
     FM261300 07012KT P6SM VCSH FEW018 SCT022 SCT035
     FM262300 06010KT P6SM FEW020
      AMD NOT SKED TIL 261100=

USA.gov is the U.S. government's official web portal to all federal, state and local government web resources and services.